sensor_id;sensor_type;location;lat;lon;timestamp;P1;durP1;ratioP1;P2;durP2;ratioP2
2452;SDS011;63678;47.994;7.854;2023-02-15T00:00:00;50.08;;;24.80;;
2452;SDS011;63678;47.994;7.854;2023-02-15T00:02:35;63.90;;;25.10;;
2452;SDS011;63678;47.994;7.854;2023-02-15T00:05:08;60.53;;;24.27;;
2452;SDS011;63678;47.994;7.854;2023-02-15T00:07:40;60.60;;;24.48;;
2452;SDS011;63678;47.994;7.854;2023-02-15T00:10:12;57.25;;;24.50;;
2452;SDS011;63678;47.994;7.854;2023-02-15T00:12:45;53.78;;;27.20;;
2452;SDS011;63678;47.994;7.854;2023-02-15T00:15:17;45.43;;;23.80;;
2452;SDS011;63678;47.994;7.854;2023-02-15T00:17:50;52.85;;;23.42;;
2452;SDS011;63678;47.994;7.854;2023-02-15T00:20:22;43.63;;;23.88;;
2452;SDS011;63678;47.994;7.854;2023-02-15T00:22:54;47.83;;;23.67;;
2452;SDS011;63678;47.994;7.854;2023-02-15T00:25:27;43.08;;;22.20;;
2452;SDS011;63678;47.994;7.854;2023-02-15T00:27:59;47.40;;;22.63;;
2452;SDS011;63678;47.994;7.854;2023-02-15T00:30:32;50.58;;;23.17;;
2452;SDS011;63678;47.994;7.854;2023-02-15T00:33:04;44.88;;;23.73;;
2452;SDS011;63678;47.994;7.854;2023-02-15T00:35:37;45.70;;;23.25;;
2452;SDS011;63678;47.994;7.854;2023-02-15T00:38:09;51.28;;;23.25;;
2452;SDS011;63678;47.994;7.854;2023-02-15T00:40:42;45.07;;;22.30;;
2452;SDS011;63678;47.994;7.854;2023-02-15T00:43:14;42.28;;;22.23;;
2452;SDS011;63678;47.994;7.854;2023-02-15T00:45:47;48.75;;;24.63;;
2452;SDS011;63678;47.994;7.854;2023-02-15T00:48:20;40.28;;;22.52;;
2452;SDS011;63678;47.994;7.854;2023-02-15T00:50:54;46.35;;;23.63;;
2452;SDS011;63678;47.994;7.854;2023-02-15T00:53:29;41.33;;;22.90;;
2452;SDS011;63678;47.994;7.854;2023-02-15T00:56:02;44.15;;;24.27;;
2452;SDS011;63678;47.994;7.854;2023-02-15T00:58:34;52.53;;;24.15;;
2452;SDS011;63678;47.994;7.854;2023-02-15T01:01:08;45.58;;;23.77;;
2452;SDS011;63678;47.994;7.854;2023-02-15T01:03:43;52.15;;;25.10;;
2452;SDS011;63678;47.994;7.854;2023-02-15T01:06:18;49.03;;;23.73;;
2452;SDS011;63678;47.994;7.854;2023-02-15T01:08:51;46.72;;;22.77;;
2452;SDS011;63678;47.994;7.854;2023-02-15T01:11:23;39.55;;;22.02;;
2452;SDS011;63678;47.994;7.854;2023-02-15T01:13:56;34.03;;;19.58;;
2452;SDS011;63678;47.994;7.854;2023-02-15T01:16:29;33.15;;;18.77;;
2452;SDS011;63678;47.994;7.854;2023-02-15T01:19:02;33.60;;;19.17;;
2452;SDS011;63678;47.994;7.854;2023-02-15T01:21:35;39.13;;;20.00;;
2452;SDS011;63678;47.994;7.854;2023-02-15T01:24:14;48.35;;;23.58;;
2452;SDS011;63678;47.994;7.854;2023-02-15T01:26:46;56.00;;;23.65;;
2452;SDS011;63678;47.994;7.854;2023-02-15T01:29:18;51.10;;;22.88;;
2452;SDS011;63678;47.994;7.854;2023-02-15T01:31:51;45.07;;;21.83;;
2452;SDS011;63678;47.994;7.854;2023-02-15T01:34:23;45.38;;;22.88;;
2452;SDS011;63678;47.994;7.854;2023-02-15T01:36:56;109.78;;;28.15;;
2452;SDS011;63678;47.994;7.854;2023-02-15T01:39:28;81.85;;;27.17;;
2452;SDS011;63678;47.994;7.854;2023-02-15T01:42:00;104.47;;;26.38;;
2452;SDS011;63678;47.994;7.854;2023-02-15T01:44:47;81.53;;;25.67;;
2452;SDS011;63678;47.994;7.854;2023-02-15T01:50:36;114.05;;;26.77;;
2452;SDS011;63678;47.994;7.854;2023-02-15T01:53:20;47.22;;;24.88;;
2452;SDS011;63678;47.994;7.854;2023-02-15T01:56:04;45.75;;;24.08;;
2452;SDS011;63678;47.994;7.854;2023-02-15T01:58:41;44.47;;;23.17;;
2452;SDS011;63678;47.994;7.854;2023-02-15T02:01:15;47.80;;;22.10;;
2452;SDS011;63678;47.994;7.854;2023-02-15T02:06:48;47.60;;;23.17;;
2452;SDS011;63678;47.994;7.854;2023-02-15T02:09:22;51.80;;;23.98;;
2452;SDS011;63678;47.994;7.854;2023-02-15T02:11:54;49.47;;;22.90;;
2452;SDS011;63678;47.994;7.854;2023-02-15T02:14:27;40.95;;;22.10;;
2452;SDS011;63678;47.994;7.854;2023-02-15T02:23:07;47.20;;;24.08;;
2452;SDS011;63678;47.994;7.854;2023-02-15T02:36:46;60.67;;;23.35;;
2452;SDS011;63678;47.994;7.854;2023-02-15T02:45:16;50.78;;;23.55;;
2452;SDS011;63678;47.994;7.854;2023-02-15T02:47:57;51.28;;;24.75;;
2452;SDS011;63678;47.994;7.854;2023-02-15T02:50:38;92.32;;;23.35;;
2452;SDS011;63678;47.994;7.854;2023-02-15T02:53:12;100.78;;;23.55;;
2452;SDS011;63678;47.994;7.854;2023-02-15T02:56:06;51.10;;;21.63;;
2452;SDS011;63678;47.994;7.854;2023-02-15T03:01:50;38.72;;;20.35;;
2452;SDS011;63678;47.994;7.854;2023-02-15T03:04:45;36.95;;;19.52;;
2452;SDS011;63678;47.994;7.854;2023-02-15T03:07:30;37.90;;;20.08;;
2452;SDS011;63678;47.994;7.854;2023-02-15T03:10:05;33.83;;;18.10;;
2452;SDS011;63678;47.994;7.854;2023-02-15T03:12:40;48.30;;;20.77;;
2452;SDS011;63678;47.994;7.854;2023-02-15T03:15:19;40.42;;;20.73;;
2452;SDS011;63678;47.994;7.854;2023-02-15T03:17:58;48.58;;;22.15;;
2452;SDS011;63678;47.994;7.854;2023-02-15T03:20:35;48.25;;;22.88;;
2452;SDS011;63678;47.994;7.854;2023-02-15T03:23:29;40.90;;;20.57;;
2452;SDS011;63678;47.994;7.854;2023-02-15T03:26:05;44.08;;;21.83;;
2452;SDS011;63678;47.994;7.854;2023-02-15T03:28:42;42.35;;;22.30;;
2452;SDS011;63678;47.994;7.854;2023-02-15T03:31:17;41.83;;;21.08;;
2452;SDS011;63678;47.994;7.854;2023-02-15T03:33:56;44.33;;;21.75;;
2452;SDS011;63678;47.994;7.854;2023-02-15T03:39:20;43.05;;;20.42;;
2452;SDS011;63678;47.994;7.854;2023-02-15T03:42:13;42.90;;;20.48;;
2452;SDS011;63678;47.994;7.854;2023-02-15T03:45:10;38.67;;;20.67;;
2452;SDS011;63678;47.994;7.854;2023-02-15T03:47:47;41.92;;;20.70;;
2452;SDS011;63678;47.994;7.854;2023-02-15T03:50:27;47.40;;;21.63;;
2452;SDS011;63678;47.994;7.854;2023-02-15T03:53:21;58.60;;;23.27;;
2452;SDS011;63678;47.994;7.854;2023-02-15T03:55:55;65.80;;;22.17;;
2452;SDS011;63678;47.994;7.854;2023-02-15T03:58:28;61.90;;;22.25;;
2452;SDS011;63678;47.994;7.854;2023-02-15T04:04:33;54.57;;;21.13;;
2452;SDS011;63678;47.994;7.854;2023-02-15T04:07:09;50.33;;;21.65;;
2452;SDS011;63678;47.994;7.854;2023-02-15T04:09:41;49.92;;;22.98;;
2452;SDS011;63678;47.994;7.854;2023-02-15T04:12:32;56.15;;;21.05;;
2452;SDS011;63678;47.994;7.854;2023-02-15T04:15:04;53.88;;;21.92;;
2452;SDS011;63678;47.994;7.854;2023-02-15T04:17:56;69.37;;;21.33;;
2452;SDS011;63678;47.994;7.854;2023-02-15T04:20:50;60.90;;;20.50;;
2452;SDS011;63678;47.994;7.854;2023-02-15T04:24:01;60.67;;;22.50;;
2452;SDS011;63678;47.994;7.854;2023-02-15T04:26:52;59.05;;;23.10;;
2452;SDS011;63678;47.994;7.854;2023-02-15T04:29:26;70.32;;;21.55;;
2452;SDS011;63678;47.994;7.854;2023-02-15T04:32:00;65.83;;;22.47;;
2452;SDS011;63678;47.994;7.854;2023-02-15T04:34:33;55.83;;;22.38;;
2452;SDS011;63678;47.994;7.854;2023-02-15T04:37:05;47.75;;;22.90;;
2452;SDS011;63678;47.994;7.854;2023-02-15T04:39:38;50.13;;;23.05;;
2452;SDS011;63678;47.994;7.854;2023-02-15T04:42:10;50.78;;;22.45;;
2452;SDS011;63678;47.994;7.854;2023-02-15T04:44:43;54.97;;;21.67;;
2452;SDS011;63678;47.994;7.854;2023-02-15T04:47:15;55.25;;;21.08;;
2452;SDS011;63678;47.994;7.854;2023-02-15T04:49:48;50.15;;;20.60;;
2452;SDS011;63678;47.994;7.854;2023-02-15T04:52:21;66.88;;;20.35;;
2452;SDS011;63678;47.994;7.854;2023-02-15T04:54:53;50.72;;;20.27;;
2452;SDS011;63678;47.994;7.854;2023-02-15T04:57:26;42.27;;;20.53;;
2452;SDS011;63678;47.994;7.854;2023-02-15T04:59:58;72.43;;;21.30;;
2452;SDS011;63678;47.994;7.854;2023-02-15T05:02:32;45.55;;;21.38;;
2452;SDS011;63678;47.994;7.854;2023-02-15T05:05:04;48.45;;;20.73;;
2452;SDS011;63678;47.994;7.854;2023-02-15T05:07:37;48.75;;;20.25;;
2452;SDS011;63678;47.994;7.854;2023-02-15T05:10:10;67.27;;;19.57;;
2452;SDS011;63678;47.994;7.854;2023-02-15T05:12:42;41.30;;;18.90;;
2452;SDS011;63678;47.994;7.854;2023-02-15T05:15:15;45.90;;;18.15;;
2452;SDS011;63678;47.994;7.854;2023-02-15T05:17:47;49.40;;;17.33;;
2452;SDS011;63678;47.994;7.854;2023-02-15T05:20:19;36.38;;;17.85;;
2452;SDS011;63678;47.994;7.854;2023-02-15T05:22:55;25.37;;;12.03;;
2452;SDS011;63678;47.994;7.854;2023-02-15T05:25:27;37.65;;;18.25;;
2452;SDS011;63678;47.994;7.854;2023-02-15T05:28:18;38.70;;;18.17;;
2452;SDS011;63678;47.994;7.854;2023-02-15T05:31:10;34.30;;;17.83;;
2452;SDS011;63678;47.994;7.854;2023-02-15T05:33:45;40.92;;;18.30;;
2452;SDS011;63678;47.994;7.854;2023-02-15T05:36:18;37.77;;;18.37;;
2452;SDS011;63678;47.994;7.854;2023-02-15T05:38:50;36.80;;;18.50;;
2452;SDS011;63678;47.994;7.854;2023-02-15T05:41:22;34.40;;;16.50;;
2452;SDS011;63678;47.994;7.854;2023-02-15T05:43:55;26.40;;;15.07;;
2452;SDS011;63678;47.994;7.854;2023-02-15T05:46:28;26.88;;;13.77;;
2452;SDS011;63678;47.994;7.854;2023-02-15T05:49:03;22.37;;;13.20;;
2452;SDS011;63678;47.994;7.854;2023-02-15T05:51:35;25.60;;;13.70;;
2452;SDS011;63678;47.994;7.854;2023-02-15T05:54:07;24.70;;;13.77;;
2452;SDS011;63678;47.994;7.854;2023-02-15T05:56:41;25.50;;;13.50;;
2452;SDS011;63678;47.994;7.854;2023-02-15T05:59:13;25.83;;;14.18;;
2452;SDS011;63678;47.994;7.854;2023-02-15T06:01:45;25.80;;;14.47;;
2452;SDS011;63678;47.994;7.854;2023-02-15T06:04:19;26.48;;;14.40;;
2452;SDS011;63678;47.994;7.854;2023-02-15T06:06:52;27.00;;;15.43;;
2452;SDS011;63678;47.994;7.854;2023-02-15T06:09:45;27.25;;;13.93;;
2452;SDS011;63678;47.994;7.854;2023-02-15T06:12:17;25.75;;;14.07;;
2452;SDS011;63678;47.994;7.854;2023-02-15T06:14:49;28.87;;;15.67;;
2452;SDS011;63678;47.994;7.854;2023-02-15T06:17:21;26.60;;;13.90;;
2452;SDS011;63678;47.994;7.854;2023-02-15T06:19:54;28.15;;;14.35;;
2452;SDS011;63678;47.994;7.854;2023-02-15T06:22:27;25.88;;;13.75;;
2452;SDS011;63678;47.994;7.854;2023-02-15T06:24:59;23.55;;;13.73;;
2452;SDS011;63678;47.994;7.854;2023-02-15T06:27:31;24.43;;;13.87;;
2452;SDS011;63678;47.994;7.854;2023-02-15T06:30:04;24.60;;;13.52;;
2452;SDS011;63678;47.994;7.854;2023-02-15T06:32:58;28.77;;;14.63;;
2452;SDS011;63678;47.994;7.854;2023-02-15T06:35:31;29.38;;;15.63;;
2452;SDS011;63678;47.994;7.854;2023-02-15T06:38:03;26.95;;;14.93;;
2452;SDS011;63678;47.994;7.854;2023-02-15T06:40:35;29.40;;;16.30;;
2452;SDS011;63678;47.994;7.854;2023-02-15T06:43:08;30.08;;;15.38;;
2452;SDS011;63678;47.994;7.854;2023-02-15T06:45:40;28.23;;;15.02;;
2452;SDS011;63678;47.994;7.854;2023-02-15T06:48:14;28.70;;;15.45;;
2452;SDS011;63678;47.994;7.854;2023-02-15T06:50:46;27.70;;;14.73;;
2452;SDS011;63678;47.994;7.854;2023-02-15T06:53:37;26.33;;;14.13;;
2452;SDS011;63678;47.994;7.854;2023-02-15T06:56:10;25.80;;;14.75;;
2452;SDS011;63678;47.994;7.854;2023-02-15T06:58:43;23.80;;;14.30;;
2452;SDS011;63678;47.994;7.854;2023-02-15T07:04:14;25.80;;;14.50;;
2452;SDS011;63678;47.994;7.854;2023-02-15T07:07:11;26.13;;;14.20;;
2452;SDS011;63678;47.994;7.854;2023-02-15T07:09:44;26.42;;;15.00;;
2452;SDS011;63678;47.994;7.854;2023-02-15T07:12:39;33.80;;;16.05;;
2452;SDS011;63678;47.994;7.854;2023-02-15T07:15:15;33.85;;;16.52;;
2452;SDS011;63678;47.994;7.854;2023-02-15T07:17:50;28.13;;;15.43;;
2452;SDS011;63678;47.994;7.854;2023-02-15T07:20:23;27.13;;;15.63;;
2452;SDS011;63678;47.994;7.854;2023-02-15T07:22:56;30.80;;;15.82;;
2452;SDS011;63678;47.994;7.854;2023-02-15T07:25:29;27.27;;;15.05;;
2452;SDS011;63678;47.994;7.854;2023-02-15T07:28:02;28.05;;;15.73;;
2452;SDS011;63678;47.994;7.854;2023-02-15T07:30:37;30.20;;;16.58;;
2452;SDS011;63678;47.994;7.854;2023-02-15T07:33:09;38.93;;;17.50;;
2452;SDS011;63678;47.994;7.854;2023-02-15T07:36:00;40.35;;;17.08;;
2452;SDS011;63678;47.994;7.854;2023-02-15T07:38:38;36.63;;;17.35;;
2452;SDS011;63678;47.994;7.854;2023-02-15T07:41:13;44.92;;;17.23;;
2452;SDS011;63678;47.994;7.854;2023-02-15T07:44:15;45.92;;;17.65;;
2452;SDS011;63678;47.994;7.854;2023-02-15T07:46:48;40.13;;;18.67;;
2452;SDS011;63678;47.994;7.854;2023-02-15T07:49:21;53.45;;;19.45;;
2452;SDS011;63678;47.994;7.854;2023-02-15T07:51:53;44.05;;;17.73;;
2452;SDS011;63678;47.994;7.854;2023-02-15T07:54:26;37.83;;;17.48;;
2452;SDS011;63678;47.994;7.854;2023-02-15T07:57:00;35.05;;;19.10;;
2452;SDS011;63678;47.994;7.854;2023-02-15T07:59:33;33.17;;;17.60;;
2452;SDS011;63678;47.994;7.854;2023-02-15T08:02:10;29.35;;;16.40;;
2452;SDS011;63678;47.994;7.854;2023-02-15T08:04:43;19.02;;;10.77;;
2452;SDS011;63678;47.994;7.854;2023-02-15T08:07:15;15.52;;;10.05;;
2452;SDS011;63678;47.994;7.854;2023-02-15T08:09:48;23.17;;;13.05;;
2452;SDS011;63678;47.994;7.854;2023-02-15T08:12:21;26.97;;;14.07;;
2452;SDS011;63678;47.994;7.854;2023-02-15T08:14:53;37.22;;;16.38;;
2452;SDS011;63678;47.994;7.854;2023-02-15T08:17:26;35.05;;;18.02;;
2452;SDS011;63678;47.994;7.854;2023-02-15T08:19:58;37.65;;;18.73;;
2452;SDS011;63678;47.994;7.854;2023-02-15T08:22:31;38.72;;;18.63;;
2452;SDS011;63678;47.994;7.854;2023-02-15T08:25:24;35.57;;;18.40;;
2452;SDS011;63678;47.994;7.854;2023-02-15T08:27:58;35.72;;;17.95;;
2452;SDS011;63678;47.994;7.854;2023-02-15T08:30:31;36.97;;;19.73;;
2452;SDS011;63678;47.994;7.854;2023-02-15T08:33:06;38.88;;;19.08;;
2452;SDS011;63678;47.994;7.854;2023-02-15T08:35:39;35.97;;;18.00;;
2452;SDS011;63678;47.994;7.854;2023-02-15T08:38:11;34.27;;;17.90;;
2452;SDS011;63678;47.994;7.854;2023-02-15T08:40:46;34.92;;;19.00;;
2452;SDS011;63678;47.994;7.854;2023-02-15T08:43:19;42.05;;;21.65;;
2452;SDS011;63678;47.994;7.854;2023-02-15T08:45:52;37.08;;;19.70;;
2452;SDS011;63678;47.994;7.854;2023-02-15T08:48:25;41.13;;;21.35;;
2452;SDS011;63678;47.994;7.854;2023-02-15T08:50:57;37.70;;;20.30;;
2452;SDS011;63678;47.994;7.854;2023-02-15T08:53:31;37.53;;;19.60;;
2452;SDS011;63678;47.994;7.854;2023-02-15T08:56:04;38.17;;;19.70;;
2452;SDS011;63678;47.994;7.854;2023-02-15T08:58:59;42.70;;;19.95;;
2452;SDS011;63678;47.994;7.854;2023-02-15T09:01:34;38.47;;;20.17;;
2452;SDS011;63678;47.994;7.854;2023-02-15T09:04:09;35.83;;;18.43;;
2452;SDS011;63678;47.994;7.854;2023-02-15T09:06:43;40.55;;;18.35;;
2452;SDS011;63678;47.994;7.854;2023-02-15T09:09:37;40.75;;;19.15;;
2452;SDS011;63678;47.994;7.854;2023-02-15T09:12:10;39.05;;;17.48;;
2452;SDS011;63678;47.994;7.854;2023-02-15T09:14:43;37.10;;;18.98;;
2452;SDS011;63678;47.994;7.854;2023-02-15T09:17:37;33.23;;;18.00;;
2452;SDS011;63678;47.994;7.854;2023-02-15T09:20:10;33.90;;;17.55;;
2452;SDS011;63678;47.994;7.854;2023-02-15T09:22:43;32.25;;;16.75;;
2452;SDS011;63678;47.994;7.854;2023-02-15T09:25:37;31.20;;;17.70;;
2452;SDS011;63678;47.994;7.854;2023-02-15T09:28:10;34.35;;;18.02;;
2452;SDS011;63678;47.994;7.854;2023-02-15T09:30:44;31.50;;;16.63;;
2452;SDS011;63678;47.994;7.854;2023-02-15T09:33:16;33.60;;;17.17;;
2452;SDS011;63678;47.994;7.854;2023-02-15T09:35:49;36.17;;;17.45;;
2452;SDS011;63678;47.994;7.854;2023-02-15T09:38:22;32.00;;;17.33;;
2452;SDS011;63678;47.994;7.854;2023-02-15T09:53:59;37.63;;;18.92;;
2452;SDS011;63678;47.994;7.854;2023-02-15T09:56:58;37.38;;;19.20;;
2452;SDS011;63678;47.994;7.854;2023-02-15T10:06:05;36.72;;;17.95;;
2452;SDS011;63678;47.994;7.854;2023-02-15T10:09:02;34.97;;;17.35;;
2452;SDS011;63678;47.994;7.854;2023-02-15T10:14:42;29.43;;;16.63;;
2452;SDS011;63678;47.994;7.854;2023-02-15T10:24:21;30.33;;;16.20;;
2452;SDS011;63678;47.994;7.854;2023-02-15T10:27:20;28.80;;;16.13;;
2452;SDS011;63678;47.994;7.854;2023-02-15T10:29:58;28.40;;;15.07;;
2452;SDS011;63678;47.994;7.854;2023-02-15T10:32:57;31.48;;;17.30;;
2452;SDS011;63678;47.994;7.854;2023-02-15T10:57:27;27.88;;;16.88;;
2452;SDS011;63678;47.994;7.854;2023-02-15T11:00:39;31.67;;;17.40;;
2452;SDS011;63678;47.994;7.854;2023-02-15T11:06:14;29.60;;;18.00;;
2452;SDS011;63678;47.994;7.854;2023-02-15T11:08:50;30.17;;;17.20;;
2452;SDS011;63678;47.994;7.854;2023-02-15T11:11:33;31.45;;;16.45;;
2452;SDS011;63678;47.994;7.854;2023-02-15T11:14:14;32.77;;;16.33;;
2452;SDS011;63678;47.994;7.854;2023-02-15T11:17:14;28.13;;;16.83;;
2452;SDS011;63678;47.994;7.854;2023-02-15T11:20:02;34.50;;;15.27;;
2452;SDS011;63678;47.994;7.854;2023-02-15T11:23:02;25.30;;;15.30;;
2452;SDS011;63678;47.994;7.854;2023-02-15T11:25:38;28.23;;;15.98;;
2452;SDS011;63678;47.994;7.854;2023-02-15T11:28:16;29.20;;;16.77;;
2452;SDS011;63678;47.994;7.854;2023-02-15T11:30:55;25.70;;;15.15;;
2452;SDS011;63678;47.994;7.854;2023-02-15T11:33:34;29.95;;;17.00;;
2452;SDS011;63678;47.994;7.854;2023-02-15T11:36:14;27.00;;;14.73;;
2452;SDS011;63678;47.994;7.854;2023-02-15T11:38:58;31.75;;;16.20;;
2452;SDS011;63678;47.994;7.854;2023-02-15T11:41:52;26.77;;;14.40;;
2452;SDS011;63678;47.994;7.854;2023-02-15T11:44:37;22.77;;;14.60;;
2452;SDS011;63678;47.994;7.854;2023-02-15T11:47:17;25.75;;;15.95;;
2452;SDS011;63678;47.994;7.854;2023-02-15T11:49:49;27.65;;;16.02;;
2452;SDS011;63678;47.994;7.854;2023-02-15T11:52:22;25.70;;;14.43;;
2452;SDS011;63678;47.994;7.854;2023-02-15T11:54:54;26.00;;;14.80;;
2452;SDS011;63678;47.994;7.854;2023-02-15T12:02:50;28.23;;;16.27;;
2452;SDS011;63678;47.994;7.854;2023-02-15T12:05:26;28.63;;;16.98;;
2452;SDS011;63678;47.994;7.854;2023-02-15T12:08:19;29.47;;;15.63;;
2452;SDS011;63678;47.994;7.854;2023-02-15T12:11:09;29.83;;;16.15;;
2452;SDS011;63678;47.994;7.854;2023-02-15T12:13:58;30.75;;;15.80;;
2452;SDS011;63678;47.994;7.854;2023-02-15T12:16:44;31.40;;;17.15;;
2452;SDS011;63678;47.994;7.854;2023-02-15T12:22:04;27.23;;;17.00;;
2452;SDS011;63678;47.994;7.854;2023-02-15T12:24:45;27.33;;;15.88;;
2452;SDS011;63678;47.994;7.854;2023-02-15T12:27:19;31.52;;;18.05;;
2452;SDS011;63678;47.994;7.854;2023-02-15T12:32:52;33.03;;;16.90;;
2452;SDS011;63678;47.994;7.854;2023-02-15T12:35:32;31.17;;;17.47;;
2452;SDS011;63678;47.994;7.854;2023-02-15T12:40:42;36.72;;;20.75;;
2452;SDS011;63678;47.994;7.854;2023-02-15T12:43:36;33.00;;;19.83;;
2452;SDS011;63678;47.994;7.854;2023-02-15T12:46:13;33.53;;;17.83;;
2452;SDS011;63678;47.994;7.854;2023-02-15T12:51:52;30.65;;;17.33;;
2452;SDS011;63678;47.994;7.854;2023-02-15T12:57:20;35.00;;;19.25;;
2452;SDS011;63678;47.994;7.854;2023-02-15T13:00:02;34.00;;;17.85;;
2452;SDS011;63678;47.994;7.854;2023-02-15T13:02:59;33.53;;;17.43;;
2452;SDS011;63678;47.994;7.854;2023-02-15T13:05:39;25.95;;;17.60;;
2452;SDS011;63678;47.994;7.854;2023-02-15T13:08:17;28.50;;;18.02;;
2452;SDS011;63678;47.994;7.854;2023-02-15T13:10:54;33.47;;;18.60;;
2452;SDS011;63678;47.994;7.854;2023-02-15T13:13:50;32.13;;;19.15;;
2452;SDS011;63678;47.994;7.854;2023-02-15T13:16:35;32.47;;;17.17;;
2452;SDS011;63678;47.994;7.854;2023-02-15T13:19:19;31.83;;;17.05;;
2452;SDS011;63678;47.994;7.854;2023-02-15T13:22:05;30.58;;;18.20;;
2452;SDS011;63678;47.994;7.854;2023-02-15T13:24:46;30.92;;;17.50;;
2452;SDS011;63678;47.994;7.854;2023-02-15T13:27:29;28.30;;;16.73;;
2452;SDS011;63678;47.994;7.854;2023-02-15T13:30:20;28.37;;;17.50;;
2452;SDS011;63678;47.994;7.854;2023-02-15T13:33:12;28.70;;;17.27;;
2452;SDS011;63678;47.994;7.854;2023-02-15T13:39:03;30.65;;;17.15;;
2452;SDS011;63678;47.994;7.854;2023-02-15T13:47:59;29.65;;;16.90;;
2452;SDS011;63678;47.994;7.854;2023-02-15T13:51:05;28.58;;;18.00;;
2452;SDS011;63678;47.994;7.854;2023-02-15T13:53:55;29.67;;;17.38;;
2452;SDS011;63678;47.994;7.854;2023-02-15T14:03:34;25.35;;;15.93;;
2452;SDS011;63678;47.994;7.854;2023-02-15T14:07:07;31.20;;;15.68;;
2452;SDS011;63678;47.994;7.854;2023-02-15T14:17:13;32.97;;;17.27;;
2452;SDS011;63678;47.994;7.854;2023-02-15T14:22:20;37.38;;;17.52;;
2452;SDS011;63678;47.994;7.854;2023-02-15T14:25:24;30.52;;;17.58;;
2452;SDS011;63678;47.994;7.854;2023-02-15T14:28:42;34.05;;;17.90;;
2452;SDS011;63678;47.994;7.854;2023-02-15T14:31:41;26.30;;;16.60;;
2452;SDS011;63678;47.994;7.854;2023-02-15T14:34:24;28.17;;;16.38;;
2452;SDS011;63678;47.994;7.854;2023-02-15T14:37:08;28.75;;;17.38;;
2452;SDS011;63678;47.994;7.854;2023-02-15T14:43:27;26.60;;;16.67;;
2452;SDS011;63678;47.994;7.854;2023-02-15T14:48:54;33.80;;;18.00;;
2452;SDS011;63678;47.994;7.854;2023-02-15T15:04:42;31.35;;;18.85;;
2452;SDS011;63678;47.994;7.854;2023-02-15T15:07:45;27.17;;;17.33;;
2452;SDS011;63678;47.994;7.854;2023-02-15T15:19:11;32.42;;;17.48;;
2452;SDS011;63678;47.994;7.854;2023-02-15T15:38:55;29.15;;;16.85;;
2452;SDS011;63678;47.994;7.854;2023-02-15T15:42:24;27.97;;;16.57;;
2452;SDS011;63678;47.994;7.854;2023-02-15T15:48:38;32.88;;;17.75;;
2452;SDS011;63678;47.994;7.854;2023-02-15T15:53:52;30.17;;;18.27;;
2452;SDS011;63678;47.994;7.854;2023-02-15T15:56:29;29.37;;;18.57;;
2452;SDS011;63678;47.994;7.854;2023-02-15T15:59:05;27.70;;;18.27;;
2452;SDS011;63678;47.994;7.854;2023-02-15T16:01:46;32.42;;;18.73;;
2452;SDS011;63678;47.994;7.854;2023-02-15T16:04:26;28.98;;;17.58;;
2452;SDS011;63678;47.994;7.854;2023-02-15T16:09:58;30.40;;;18.17;;
2452;SDS011;63678;47.994;7.854;2023-02-15T16:12:34;29.83;;;18.55;;
2452;SDS011;63678;47.994;7.854;2023-02-15T16:15:16;32.75;;;18.48;;
2452;SDS011;63678;47.994;7.854;2023-02-15T16:17:56;34.53;;;18.88;;
2452;SDS011;63678;47.994;7.854;2023-02-15T16:20:34;32.00;;;19.45;;
2452;SDS011;63678;47.994;7.854;2023-02-15T16:29:28;35.30;;;19.65;;
2452;SDS011;63678;47.994;7.854;2023-02-15T16:32:05;34.90;;;19.58;;
2452;SDS011;63678;47.994;7.854;2023-02-15T16:37:25;30.67;;;19.13;;
2452;SDS011;63678;47.994;7.854;2023-02-15T16:42:56;30.95;;;18.60;;
2452;SDS011;63678;47.994;7.854;2023-02-15T16:45:33;36.50;;;20.27;;
2452;SDS011;63678;47.994;7.854;2023-02-15T16:48:12;34.47;;;18.80;;
2452;SDS011;63678;47.994;7.854;2023-02-15T16:50:51;39.03;;;21.13;;
2452;SDS011;63678;47.994;7.854;2023-02-15T16:53:28;33.30;;;19.73;;
2452;SDS011;63678;47.994;7.854;2023-02-15T16:56:02;34.30;;;20.73;;
2452;SDS011;63678;47.994;7.854;2023-02-15T16:58:38;32.75;;;20.50;;
2452;SDS011;63678;47.994;7.854;2023-02-15T17:01:14;33.95;;;19.77;;
2452;SDS011;63678;47.994;7.854;2023-02-15T17:03:48;35.20;;;19.70;;
2452;SDS011;63678;47.994;7.854;2023-02-15T17:06:57;38.60;;;20.35;;
2452;SDS011;63678;47.994;7.854;2023-02-15T17:09:48;35.92;;;20.15;;
2452;SDS011;63678;47.994;7.854;2023-02-15T17:20:50;38.30;;;22.00;;
2452;SDS011;63678;47.994;7.854;2023-02-15T17:23:33;39.88;;;21.67;;
2452;SDS011;63678;47.994;7.854;2023-02-15T17:26:13;40.17;;;22.45;;
2452;SDS011;63678;47.994;7.854;2023-02-15T17:28:55;38.45;;;22.50;;
2452;SDS011;63678;47.994;7.854;2023-02-15T17:31:47;43.13;;;23.87;;
2452;SDS011;63678;47.994;7.854;2023-02-15T17:40:00;42.00;;;22.42;;
2452;SDS011;63678;47.994;7.854;2023-02-15T17:42:41;41.15;;;23.23;;
2452;SDS011;63678;47.994;7.854;2023-02-15T17:45:14;39.53;;;23.83;;
2452;SDS011;63678;47.994;7.854;2023-02-15T17:47:47;41.47;;;23.17;;
2452;SDS011;63678;47.994;7.854;2023-02-15T17:50:26;41.15;;;23.35;;
2452;SDS011;63678;47.994;7.854;2023-02-15T17:52:59;43.05;;;23.30;;
2452;SDS011;63678;47.994;7.854;2023-02-15T17:55:32;40.88;;;22.95;;
2452;SDS011;63678;47.994;7.854;2023-02-15T18:00:46;43.67;;;24.05;;
2452;SDS011;63678;47.994;7.854;2023-02-15T18:03:50;39.63;;;23.77;;
2452;SDS011;63678;47.994;7.854;2023-02-15T18:06:42;42.85;;;23.27;;
2452;SDS011;63678;47.994;7.854;2023-02-15T18:09:34;34.75;;;20.17;;
2452;SDS011;63678;47.994;7.854;2023-02-15T18:12:26;30.40;;;18.17;;
2452;SDS011;63678;47.994;7.854;2023-02-15T18:15:09;27.48;;;17.05;;
2452;SDS011;63678;47.994;7.854;2023-02-15T18:17:44;26.17;;;15.50;;
2452;SDS011;63678;47.994;7.854;2023-02-15T18:20:19;28.55;;;16.42;;
2452;SDS011;63678;47.994;7.854;2023-02-15T18:22:55;28.88;;;15.40;;
2452;SDS011;63678;47.994;7.854;2023-02-15T18:25:27;25.03;;;14.70;;
2452;SDS011;63678;47.994;7.854;2023-02-15T18:28:00;21.40;;;13.15;;
2452;SDS011;63678;47.994;7.854;2023-02-15T18:30:32;25.15;;;13.07;;
2452;SDS011;63678;47.994;7.854;2023-02-15T18:33:04;26.40;;;14.18;;
2452;SDS011;63678;47.994;7.854;2023-02-15T18:35:36;28.33;;;15.60;;
2452;SDS011;63678;47.994;7.854;2023-02-15T18:38:11;29.33;;;16.13;;
2452;SDS011;63678;47.994;7.854;2023-02-15T18:40:43;24.70;;;15.32;;
2452;SDS011;63678;47.994;7.854;2023-02-15T18:43:16;30.20;;;17.67;;
2452;SDS011;63678;47.994;7.854;2023-02-15T18:45:49;29.90;;;17.65;;
2452;SDS011;63678;47.994;7.854;2023-02-15T18:48:22;35.05;;;18.35;;
2452;SDS011;63678;47.994;7.854;2023-02-15T18:50:55;29.83;;;17.90;;
2452;SDS011;63678;47.994;7.854;2023-02-15T18:53:28;35.35;;;18.85;;
2452;SDS011;63678;47.994;7.854;2023-02-15T18:56:00;36.25;;;18.65;;
2452;SDS011;63678;47.994;7.854;2023-02-15T18:58:33;34.55;;;19.67;;
2452;SDS011;63678;47.994;7.854;2023-02-15T19:01:07;30.48;;;18.42;;
2452;SDS011;63678;47.994;7.854;2023-02-15T19:03:48;38.43;;;18.13;;
2452;SDS011;63678;47.994;7.854;2023-02-15T19:06:22;19.70;;;10.48;;
2452;SDS011;63678;47.994;7.854;2023-02-15T19:08:55;18.77;;;9.75;;
2452;SDS011;63678;47.994;7.854;2023-02-15T19:11:28;26.95;;;11.25;;
2452;SDS011;63678;47.994;7.854;2023-02-15T19:14:00;17.63;;;10.32;;
2452;SDS011;63678;47.994;7.854;2023-02-15T19:16:34;18.57;;;9.93;;
2452;SDS011;63678;47.994;7.854;2023-02-15T19:19:07;21.13;;;9.80;;
2452;SDS011;63678;47.994;7.854;2023-02-15T19:21:39;18.77;;;9.32;;
2452;SDS011;63678;47.994;7.854;2023-02-15T19:24:15;19.60;;;9.70;;
2452;SDS011;63678;47.994;7.854;2023-02-15T19:26:56;14.93;;;8.48;;